createdAt,value
2022-11-09T00:00:14.000Z,44
2022-11-09T00:02:35.000Z,42.9
2022-11-09T00:05:00.000Z,46.93
2022-11-09T00:07:26.000Z,47.17
2022-11-09T00:09:52.000Z,47.53
2022-11-09T00:12:18.000Z,51.35
2022-11-09T00:14:43.000Z,52.4
2022-11-09T00:17:09.000Z,53.85
2022-11-09T00:19:35.000Z,53.77
2022-11-09T00:22:02.000Z,54.77
2022-11-09T00:24:26.000Z,53.45
2022-11-09T00:26:52.000Z,52.05
2022-11-09T00:29:18.000Z,59.15
2022-11-09T00:31:44.000Z,60.9
2022-11-09T00:34:09.000Z,64.23
2022-11-09T00:36:35.000Z,63.4
2022-11-09T00:39:00.000Z,64.47
2022-11-09T00:41:27.000Z,62.07
2022-11-09T00:43:52.000Z,60.23
2022-11-09T00:46:18.000Z,61.88
2022-11-09T00:48:44.000Z,61.98
2022-11-09T00:53:36.000Z,61.47
2022-11-09T00:56:00.000Z,60.67
2022-11-09T00:58:26.000Z,63.58
2022-11-09T01:00:53.000Z,64.95
2022-11-09T01:03:19.000Z,66.72
2022-11-09T01:05:44.000Z,64.05
2022-11-09T01:08:10.000Z,67.27
2022-11-09T01:10:36.000Z,69.1
2022-11-09T01:13:01.000Z,66.8
2022-11-09T01:17:53.000Z,66.67
2022-11-09T01:20:19.000Z,67.47
2022-11-09T01:22:44.000Z,66.57
2022-11-09T01:25:10.000Z,64.15
2022-11-09T01:27:35.000Z,63.5
2022-11-09T01:30:02.000Z,65.62
2022-11-09T01:32:28.000Z,63.27
2022-11-09T01:34:53.000Z,63.67
2022-11-09T01:37:19.000Z,63.63
2022-11-09T01:39:44.000Z,63.05
2022-11-09T01:42:11.000Z,62.38
2022-11-09T01:44:36.000Z,61.7
2022-11-09T01:47:04.000Z,60.33
2022-11-09T01:49:28.000Z,59.07
2022-11-09T01:51:54.000Z,57.43
2022-11-09T01:54:20.000Z,56.95
2022-11-09T01:56:46.000Z,56.73
2022-11-09T01:59:14.000Z,55.78
2022-11-09T02:01:44.000Z,54.63
2022-11-09T02:04:04.000Z,54.95
2022-11-09T02:06:30.000Z,55.65
2022-11-09T02:08:55.000Z,55.63
2022-11-09T02:11:21.000Z,49.07
2022-11-09T02:13:47.000Z,52.88
2022-11-09T02:16:12.000Z,49.15
2022-11-09T02:18:38.000Z,49.42
2022-11-09T02:21:05.000Z,45.5
2022-11-09T02:23:30.000Z,44.83
2022-11-09T02:25:55.000Z,48.6
2022-11-09T02:28:21.000Z,47.43
2022-11-09T02:30:47.000Z,45.52
2022-11-09T02:33:13.000Z,46.6
2022-11-09T02:35:39.000Z,46.23
2022-11-09T02:38:05.000Z,43.83
2022-11-09T02:40:30.000Z,43.28
2022-11-09T02:42:56.000Z,41.75
2022-11-09T02:45:22.000Z,44.35
2022-11-09T02:47:47.000Z,41.9
2022-11-09T02:50:15.000Z,43.17
2022-11-09T02:52:39.000Z,42.48
2022-11-09T02:55:06.000Z,40.45
2022-11-09T02:57:30.000Z,42.77
2022-11-09T02:59:55.000Z,40.97
2022-11-09T03:02:22.000Z,39.33
2022-11-09T03:04:48.000Z,36.25
2022-11-09T03:07:14.000Z,35.7
2022-11-09T03:09:40.000Z,39.48
2022-11-09T03:12:05.000Z,30.73
2022-11-09T03:14:31.000Z,35.67
2022-11-09T03:16:56.000Z,35.8
2022-11-09T03:19:23.000Z,32.6
2022-11-09T03:21:48.000Z,30.68
2022-11-09T03:24:14.000Z,31.03
2022-11-09T03:26:39.000Z,31.37
2022-11-09T03:29:05.000Z,32.95
2022-11-09T03:31:31.000Z,32.83
2022-11-09T03:33:57.000Z,32.48
2022-11-09T03:36:23.000Z,28.77
2022-11-09T03:38:49.000Z,29.87
2022-11-09T03:41:14.000Z,31.3
2022-11-09T03:43:39.000Z,30.07
2022-11-09T03:46:06.000Z,29.23
2022-11-09T03:48:32.000Z,30.23
2022-11-09T03:50:57.000Z,28.42
2022-11-09T03:53:23.000Z,27.27
2022-11-09T03:55:50.000Z,29.27
2022-11-09T03:58:14.000Z,24.43
2022-11-09T04:00:45.000Z,23.8
2022-11-09T04:03:06.000Z,23.85
2022-11-09T04:05:32.000Z,25.73
2022-11-09T04:07:57.000Z,27.5
2022-11-09T04:10:23.000Z,27.73
2022-11-09T04:12:50.000Z,29.48
2022-11-09T04:15:17.000Z,29.25
2022-11-09T04:17:43.000Z,28.9
2022-11-09T04:20:08.000Z,29.6
2022-11-09T04:22:33.000Z,30
2022-11-09T04:24:58.000Z,31.05
2022-11-09T04:27:24.000Z,30.77
2022-11-09T04:29:50.000Z,31.87
2022-11-09T04:32:16.000Z,30.07
2022-11-09T04:34:41.000Z,31.37
2022-11-09T04:37:07.000Z,30.68
2022-11-09T04:39:33.000Z,31.57
2022-11-09T04:41:58.000Z,30.93
2022-11-09T04:44:25.000Z,31.73
2022-11-09T04:46:51.000Z,40.9
2022-11-09T04:49:16.000Z,37.4
2022-11-09T04:51:43.000Z,34.15
2022-11-09T04:54:08.000Z,33.28
2022-11-09T04:56:34.000Z,32.33
2022-11-09T04:58:59.000Z,31.53
2022-11-09T05:01:29.000Z,30.67
2022-11-09T05:03:52.000Z,30.25
2022-11-09T05:06:17.000Z,28.62
2022-11-09T05:11:09.000Z,26.9
2022-11-09T05:13:35.000Z,26.45
2022-11-09T05:16:01.000Z,27.9
2022-11-09T05:18:28.000Z,27.15
2022-11-09T05:20:53.000Z,27.13
2022-11-09T05:23:19.000Z,26.93
2022-11-09T05:25:44.000Z,24.82
2022-11-09T05:28:10.000Z,24.5
2022-11-09T05:30:36.000Z,22.63
2022-11-09T05:33:02.000Z,23.2
2022-11-09T05:35:27.000Z,21.12
2022-11-09T05:37:53.000Z,22.4
2022-11-09T05:40:19.000Z,19.98
2022-11-09T05:42:44.000Z,18.53
2022-11-09T05:45:12.000Z,19.47
2022-11-09T05:47:36.000Z,21.93
2022-11-09T05:50:04.000Z,20.23
2022-11-09T05:52:29.000Z,21
2022-11-09T05:54:54.000Z,19.8
2022-11-09T05:57:20.000Z,19.1
2022-11-09T06:00:01.000Z,17.95
2022-11-09T06:02:47.000Z,17.4
2022-11-09T06:04:38.000Z,17.1
2022-11-09T06:07:04.000Z,16.73
2022-11-09T06:09:29.000Z,16.7
2022-11-09T06:11:55.000Z,17.03
2022-11-09T06:14:22.000Z,16.83
2022-11-09T06:16:47.000Z,16.67
2022-11-09T06:19:13.000Z,15.95
2022-11-09T06:21:40.000Z,16.2
2022-11-09T06:24:06.000Z,16.7
2022-11-09T06:26:32.000Z,16.85
2022-11-09T06:28:58.000Z,17.92
2022-11-09T06:31:23.000Z,19.7
2022-11-09T06:33:49.000Z,20.6
2022-11-09T06:36:17.000Z,20.95
2022-11-09T06:38:42.000Z,22
2022-11-09T06:41:08.000Z,21.77
2022-11-09T06:43:34.000Z,23.47
2022-11-09T06:46:00.000Z,24.65
2022-11-09T06:48:26.000Z,26.02
2022-11-09T06:50:51.000Z,26.4
2022-11-09T06:53:17.000Z,28.1
2022-11-09T06:55:42.000Z,27.13
2022-11-09T06:58:08.000Z,28.95
2022-11-09T07:00:46.000Z,30.02
2022-11-09T07:02:59.000Z,30.33
2022-11-09T07:05:25.000Z,31.37
2022-11-09T07:07:51.000Z,31.15
2022-11-09T07:10:17.000Z,30.5
2022-11-09T07:12:43.000Z,28.33
2022-11-09T07:15:09.000Z,26.4
2022-11-09T07:17:34.000Z,25.07
2022-11-09T07:20:00.000Z,23.93
2022-11-09T07:22:26.000Z,23.7
2022-11-09T07:24:51.000Z,23.9
2022-11-09T07:27:18.000Z,22.1
2022-11-09T07:29:43.000Z,22.9
2022-11-09T07:32:09.000Z,24.63
2022-11-09T07:34:34.000Z,24.47
2022-11-09T07:37:00.000Z,24.43
2022-11-09T07:39:26.000Z,22.5
2022-11-09T07:41:52.000Z,21.42
2022-11-09T07:44:19.000Z,20.6
2022-11-09T07:46:44.000Z,20.27
2022-11-09T07:49:13.000Z,19.98
2022-11-09T07:51:41.000Z,18.73
2022-11-09T07:54:09.000Z,17.9
2022-11-09T07:56:34.000Z,16.2
2022-11-09T07:59:00.000Z,16.63
2022-11-09T08:01:44.000Z,17.57
2022-11-09T08:03:56.000Z,15.58
2022-11-09T08:06:20.000Z,14.8
2022-11-09T08:08:45.000Z,15.75
2022-11-09T08:11:11.000Z,15.6
2022-11-09T08:13:36.000Z,15.63
2022-11-09T08:16:03.000Z,15.25
2022-11-09T08:18:28.000Z,14.77
2022-11-09T08:20:54.000Z,13.97
2022-11-09T08:23:21.000Z,13.25
2022-11-09T08:25:45.000Z,13.55
2022-11-09T08:28:11.000Z,13.3
2022-11-09T08:30:37.000Z,13.53
2022-11-09T08:33:03.000Z,14.17
2022-11-09T08:35:29.000Z,14.7
2022-11-09T08:37:54.000Z,15.1
2022-11-09T08:40:20.000Z,14.87
2022-11-09T08:42:46.000Z,14.6
2022-11-09T08:45:12.000Z,14.63
2022-11-09T08:47:37.000Z,14.5
2022-11-09T08:50:03.000Z,14.65
2022-11-09T08:52:33.000Z,14.63
2022-11-09T08:54:57.000Z,14.8
2022-11-09T08:57:24.000Z,14.25
2022-11-09T08:59:50.000Z,14.58
2022-11-09T09:02:15.000Z,13.95
2022-11-09T09:04:41.000Z,14.03
2022-11-09T09:07:07.000Z,14.73
2022-11-09T09:09:33.000Z,14.55
2022-11-09T09:11:58.000Z,14.83
2022-11-09T09:14:24.000Z,14.9
2022-11-09T09:16:51.000Z,14.75
2022-11-09T09:19:18.000Z,14.85
2022-11-09T09:21:43.000Z,15.38
2022-11-09T09:24:09.000Z,15.3
2022-11-09T09:26:35.000Z,15.33
2022-11-09T09:29:00.000Z,14.97
2022-11-09T09:31:26.000Z,15.38
2022-11-09T09:33:52.000Z,15.15
2022-11-09T09:36:18.000Z,15.38
2022-11-09T09:38:44.000Z,16.73
2022-11-09T09:41:09.000Z,16.07
2022-11-09T09:43:35.000Z,15.47
2022-11-09T09:46:00.000Z,15.85
2022-11-09T09:48:27.000Z,15.3
2022-11-09T09:50:52.000Z,16.53
2022-11-09T09:53:19.000Z,16.93
2022-11-09T09:55:44.000Z,16.12
2022-11-09T09:58:11.000Z,17.42
2022-11-09T10:00:45.000Z,16.52
2022-11-09T10:03:03.000Z,16.5
2022-11-09T10:05:29.000Z,16.8
2022-11-09T10:07:56.000Z,16.1
2022-11-09T10:10:22.000Z,16.77
2022-11-09T10:12:49.000Z,18.12
2022-11-09T10:15:15.000Z,17.6
2022-11-09T10:17:45.000Z,18.55
2022-11-09T10:20:14.000Z,18.1
2022-11-09T10:22:39.000Z,17.75
2022-11-09T10:27:41.000Z,18
2022-11-09T10:30:07.000Z,18.35
2022-11-09T10:32:34.000Z,18.23
2022-11-09T10:34:58.000Z,19.25
2022-11-09T10:37:25.000Z,18.25
2022-11-09T10:39:51.000Z,19.15
2022-11-09T10:42:17.000Z,18.1
2022-11-09T10:44:43.000Z,17.73
2022-11-09T10:47:09.000Z,16.82
2022-11-09T10:49:35.000Z,17.4
2022-11-09T10:52:01.000Z,18.4
2022-11-09T10:54:27.000Z,20.7
2022-11-09T10:56:55.000Z,20.23
2022-11-09T10:59:22.000Z,19.48
2022-11-09T11:01:52.000Z,18.65
2022-11-09T11:04:12.000Z,18.67
2022-11-09T11:06:38.000Z,19.6
2022-11-09T11:09:04.000Z,20
2022-11-09T11:11:31.000Z,21.02
2022-11-09T11:14:00.000Z,21.33
2022-11-09T11:16:29.000Z,20.23
2022-11-09T11:18:55.000Z,20.65
2022-11-09T11:21:25.000Z,20.6
2022-11-09T11:23:49.000Z,19.5
2022-11-09T11:26:16.000Z,20.1
2022-11-09T11:28:44.000Z,19.2
2022-11-09T11:31:10.000Z,19.98
2022-11-09T11:33:39.000Z,20.97
2022-11-09T11:36:06.000Z,20.52
2022-11-09T11:38:32.000Z,22.48
2022-11-09T11:40:57.000Z,22.95
2022-11-09T11:43:27.000Z,24.32
2022-11-09T11:45:56.000Z,24.95
2022-11-09T11:48:23.000Z,25.2
2022-11-09T11:50:50.000Z,24.25
2022-11-09T11:53:20.000Z,25.5
2022-11-09T11:58:19.000Z,26.2
2022-11-09T12:01:00.000Z,25.95
2022-11-09T12:03:11.000Z,26.1
2022-11-09T12:05:41.000Z,25.32
2022-11-09T12:08:10.000Z,25.32
2022-11-09T12:10:36.000Z,24.37
2022-11-09T12:13:03.000Z,25.2
2022-11-09T12:15:28.000Z,25.8
2022-11-09T12:17:55.000Z,25.95
2022-11-09T12:20:26.000Z,26.4
2022-11-09T12:22:53.000Z,26.7
2022-11-09T12:25:20.000Z,26.87
2022-11-09T12:27:46.000Z,26.35
2022-11-09T12:30:16.000Z,26.85
2022-11-09T12:32:41.000Z,26.65
2022-11-09T12:35:10.000Z,26.97
2022-11-09T12:37:36.000Z,27.4
2022-11-09T12:40:06.000Z,27.6
2022-11-09T12:42:32.000Z,28.73
2022-11-09T12:44:59.000Z,29.15
2022-11-09T12:47:25.000Z,30.02
2022-11-09T12:49:53.000Z,31.37
2022-11-09T12:52:19.000Z,30.35
2022-11-09T12:54:46.000Z,30.48
2022-11-09T12:57:13.000Z,30.62
2022-11-09T12:59:48.000Z,30.32
2022-11-09T13:02:10.000Z,30.55
2022-11-09T13:04:35.000Z,31.33
2022-11-09T13:07:03.000Z,31.25
2022-11-09T13:09:33.000Z,30.87
2022-11-09T13:12:00.000Z,30.88
2022-11-09T13:14:29.000Z,30.5
2022-11-09T13:16:55.000Z,32.1
2022-11-09T13:19:25.000Z,31.5
2022-11-09T13:21:58.000Z,32.35
2022-11-09T13:24:24.000Z,31.62
2022-11-09T13:26:53.000Z,32.63
2022-11-09T13:29:23.000Z,32.17
2022-11-09T13:31:48.000Z,33.1
2022-11-09T13:34:14.000Z,33.63
2022-11-09T13:39:21.000Z,34.55
2022-11-09T13:41:46.000Z,35.23
2022-11-09T13:44:14.000Z,35.45
2022-11-09T13:46:40.000Z,34.67
2022-11-09T13:49:08.000Z,34.73
2022-11-09T13:51:33.000Z,34.65
2022-11-09T13:54:03.000Z,35.43
2022-11-09T13:56:33.000Z,36.97
2022-11-09T13:59:00.000Z,35.55
2022-11-09T14:01:35.000Z,34.23
2022-11-09T14:03:55.000Z,36.2
2022-11-09T14:06:22.000Z,35.08
2022-11-09T14:11:23.000Z,36.53
2022-11-09T14:13:48.000Z,35.5
2022-11-09T14:16:16.000Z,36.23
2022-11-09T14:21:18.000Z,36.43
2022-11-09T14:23:45.000Z,37.3
2022-11-09T14:26:12.000Z,38.57
2022-11-09T14:28:38.000Z,38.05
2022-11-09T14:31:08.000Z,37.23
2022-11-09T14:33:33.000Z,36.6
2022-11-09T14:35:59.000Z,36.8
2022-11-09T14:38:26.000Z,38.17
2022-11-09T14:40:52.000Z,36.1
2022-11-09T14:43:19.000Z,36.77
2022-11-09T14:45:45.000Z,35.83
2022-11-09T14:48:11.000Z,36.4
2022-11-09T14:50:38.000Z,36.1
2022-11-09T14:53:05.000Z,35.38
2022-11-09T14:55:31.000Z,36.33
2022-11-09T15:00:40.000Z,36.53
2022-11-09T15:02:48.000Z,37
2022-11-09T15:05:14.000Z,36.03
2022-11-09T15:07:40.000Z,35.95
2022-11-09T15:10:06.000Z,36.45
2022-11-09T15:12:33.000Z,37.08
2022-11-09T15:14:58.000Z,36.6
2022-11-09T15:17:25.000Z,36.23
2022-11-09T15:19:49.000Z,37.1
2022-11-09T15:24:42.000Z,35.7
2022-11-09T15:27:08.000Z,37.42
2022-11-09T15:29:38.000Z,36.75
2022-11-09T15:32:04.000Z,37.17
2022-11-09T15:34:29.000Z,36.27
2022-11-09T15:36:55.000Z,38.5
2022-11-09T15:39:23.000Z,37.4
2022-11-09T15:41:47.000Z,37.05
2022-11-09T15:44:12.000Z,36.73
2022-11-09T15:46:38.000Z,37.23
2022-11-09T15:49:05.000Z,35.6
2022-11-09T15:51:30.000Z,36.48
2022-11-09T15:53:56.000Z,35.1
2022-11-09T15:56:22.000Z,35.8
2022-11-09T15:58:48.000Z,34.95
2022-11-09T16:01:44.000Z,35.43
2022-11-09T16:03:40.000Z,36.3
2022-11-09T16:06:06.000Z,36.13
2022-11-09T16:08:31.000Z,34.93
2022-11-09T16:10:57.000Z,35.93
2022-11-09T16:13:24.000Z,36.35
2022-11-09T16:15:49.000Z,35.92
2022-11-09T16:18:15.000Z,36.23
2022-11-09T16:20:41.000Z,36.55
2022-11-09T16:23:07.000Z,35.75
2022-11-09T16:25:32.000Z,35.63
2022-11-09T16:27:57.000Z,36.1
2022-11-09T16:30:24.000Z,35.73
2022-11-09T16:32:49.000Z,37.13
2022-11-09T16:35:16.000Z,38.95
2022-11-09T16:37:41.000Z,38.65
2022-11-09T16:40:09.000Z,38.95
2022-11-09T16:42:33.000Z,38.4
2022-11-09T16:44:59.000Z,38.88
2022-11-09T16:47:25.000Z,38.7
2022-11-09T16:49:51.000Z,38.15
2022-11-09T16:52:16.000Z,39.03
2022-11-09T16:54:43.000Z,38.4
2022-11-09T16:57:09.000Z,39.27
2022-11-09T16:59:35.000Z,39.55
2022-11-09T17:02:00.000Z,40.1
2022-11-09T17:04:25.000Z,39.57
2022-11-09T17:06:52.000Z,40
2022-11-09T17:09:18.000Z,40.78
2022-11-09T17:11:43.000Z,40.38
2022-11-09T17:14:10.000Z,40.6
2022-11-09T17:16:35.000Z,42.27
2022-11-09T17:19:00.000Z,43.8
2022-11-09T17:21:26.000Z,44.63
2022-11-09T17:23:52.000Z,44.53
2022-11-09T17:26:18.000Z,47
2022-11-09T17:28:44.000Z,46.9
2022-11-09T17:31:10.000Z,47.13
2022-11-09T17:33:36.000Z,46.98
2022-11-09T17:36:01.000Z,47.88
2022-11-09T17:38:28.000Z,47.05
2022-11-09T17:40:53.000Z,48.73
2022-11-09T17:43:19.000Z,49.45
2022-11-09T17:45:45.000Z,48.8
2022-11-09T17:48:11.000Z,50.2
2022-11-09T17:50:37.000Z,51.5
2022-11-09T17:53:03.000Z,49.55
2022-11-09T17:55:29.000Z,49.48
2022-11-09T17:57:54.000Z,46.75
2022-11-09T18:02:49.000Z,44.33
2022-11-09T18:05:12.000Z,42.13
2022-11-09T18:07:37.000Z,38.87
2022-11-09T18:10:03.000Z,37.35
2022-11-09T18:12:29.000Z,35.23
2022-11-09T18:14:56.000Z,31.65
2022-11-09T18:17:21.000Z,30.2
2022-11-09T18:19:46.000Z,28.17
2022-11-09T18:22:13.000Z,26.45
2022-11-09T18:24:38.000Z,23.77
2022-11-09T18:27:04.000Z,21.33
2022-11-09T18:29:30.000Z,22.02
2022-11-09T18:31:56.000Z,21.85
2022-11-09T18:34:22.000Z,19.12
2022-11-09T18:36:47.000Z,19.02
2022-11-09T18:39:13.000Z,17.2
2022-11-09T18:41:39.000Z,16.62
2022-11-09T18:44:06.000Z,15.33
2022-11-09T18:46:30.000Z,14.17
2022-11-09T18:48:56.000Z,13.8
2022-11-09T18:51:22.000Z,13.8
2022-11-09T18:53:48.000Z,11.15
2022-11-09T18:56:14.000Z,11.6
2022-11-09T18:58:40.000Z,12
2022-11-09T19:01:06.000Z,10.93
2022-11-09T19:03:31.000Z,10.13
2022-11-09T19:05:56.000Z,8.5
2022-11-09T19:08:23.000Z,8.5
2022-11-09T19:10:49.000Z,8.18
2022-11-09T19:13:15.000Z,8.15
2022-11-09T19:15:40.000Z,8.6
2022-11-09T19:18:07.000Z,8.28
2022-11-09T19:20:32.000Z,7.6
2022-11-09T19:22:58.000Z,6.9
2022-11-09T19:25:23.000Z,6.5
2022-11-09T19:27:49.000Z,7.15
2022-11-09T19:30:18.000Z,6.53
2022-11-09T19:32:41.000Z,5.9
2022-11-09T19:35:07.000Z,6.95
2022-11-09T19:37:33.000Z,6.25
2022-11-09T19:39:58.000Z,6.6
2022-11-09T19:42:24.000Z,6
2022-11-09T19:44:50.000Z,5.7
2022-11-09T19:47:16.000Z,4.92
2022-11-09T19:49:42.000Z,5.03
2022-11-09T19:52:10.000Z,4.8
2022-11-09T19:54:34.000Z,4.62
2022-11-09T19:56:58.000Z,4.57
2022-11-09T19:59:32.000Z,4.4
2022-11-09T20:01:50.000Z,4.2
2022-11-09T20:04:16.000Z,3.85
2022-11-09T20:06:42.000Z,3.8
2022-11-09T20:09:08.000Z,3.3
2022-11-09T20:11:34.000Z,3.4
2022-11-09T20:14:00.000Z,3.42
2022-11-09T20:16:26.000Z,2.95
2022-11-09T20:18:51.000Z,2.8
2022-11-09T20:21:18.000Z,2.9
2022-11-09T20:23:43.000Z,3.08
2022-11-09T20:26:09.000Z,2.7
2022-11-09T20:28:34.000Z,2.65
2022-11-09T20:31:00.000Z,2.7
2022-11-09T20:33:26.000Z,2.7
2022-11-09T20:35:51.000Z,2.4
2022-11-09T20:38:18.000Z,2.52
2022-11-09T20:43:10.000Z,2.65
2022-11-09T20:45:36.000Z,2.35
2022-11-09T20:48:01.000Z,2.3
2022-11-09T20:50:27.000Z,2.5
2022-11-09T20:52:53.000Z,2.33
2022-11-09T20:55:19.000Z,2.37
2022-11-09T20:57:45.000Z,2.05
2022-11-09T21:00:19.000Z,2.1
2022-11-09T21:02:36.000Z,2.13
2022-11-09T21:05:02.000Z,2.3
2022-11-09T21:07:28.000Z,2.42
2022-11-09T21:09:54.000Z,2.4
2022-11-09T21:12:19.000Z,2.3
2022-11-09T21:14:45.000Z,2.33
2022-11-09T21:17:12.000Z,2.3
2022-11-09T21:19:36.000Z,2.27
2022-11-09T21:22:02.000Z,2.5
2022-11-09T21:24:28.000Z,2.5
2022-11-09T21:26:54.000Z,2.1
2022-11-09T21:29:19.000Z,2.1
2022-11-09T21:31:45.000Z,2.1
2022-11-09T21:34:11.000Z,2.1
2022-11-09T21:36:36.000Z,1.93
2022-11-09T21:39:02.000Z,2
2022-11-09T21:41:27.000Z,1.9
2022-11-09T21:43:53.000Z,1.9
2022-11-09T21:46:19.000Z,2
2022-11-09T21:48:46.000Z,1.7
2022-11-09T21:51:10.000Z,1.9
2022-11-09T21:53:36.000Z,2.05
2022-11-09T21:56:04.000Z,2.15
2022-11-09T21:58:29.000Z,2.33
2022-11-09T22:00:54.000Z,2.2
2022-11-09T22:03:19.000Z,2.1
2022-11-09T22:05:45.000Z,2.17
2022-11-09T22:08:11.000Z,2.05
2022-11-09T22:10:39.000Z,2
2022-11-09T22:13:05.000Z,2.2
2022-11-09T22:15:31.000Z,2.1
2022-11-09T22:17:56.000Z,2.1
2022-11-09T22:20:22.000Z,2.1
2022-11-09T22:22:47.000Z,2.3
2022-11-09T22:25:13.000Z,2.17
2022-11-09T22:27:42.000Z,2.3
2022-11-09T22:30:10.000Z,2.87
2022-11-09T22:32:31.000Z,2.22
2022-11-09T22:34:57.000Z,2.4
2022-11-09T22:37:22.000Z,2.27
2022-11-09T22:39:49.000Z,2.52
2022-11-09T22:42:14.000Z,2.2
2022-11-09T22:44:40.000Z,2.58
2022-11-09T22:47:06.000Z,2.45
2022-11-09T22:49:31.000Z,2.6
2022-11-09T22:51:58.000Z,2.9
2022-11-09T22:54:23.000Z,2.58
2022-11-09T22:56:49.000Z,3.27
2022-11-09T22:59:18.000Z,3
2022-11-09T23:01:56.000Z,3.58
2022-11-09T23:04:07.000Z,3.6
2022-11-09T23:06:32.000Z,3.5
2022-11-09T23:08:58.000Z,3.6
2022-11-09T23:11:23.000Z,3.62
2022-11-09T23:13:50.000Z,4
2022-11-09T23:16:16.000Z,4.15
2022-11-09T23:18:41.000Z,3.7
2022-11-09T23:21:09.000Z,3.7
2022-11-09T23:23:34.000Z,3.4
2022-11-09T23:25:59.000Z,3.52
2022-11-09T23:28:25.000Z,3.22
2022-11-09T23:30:51.000Z,3.4
2022-11-09T23:33:17.000Z,2.8
2022-11-09T23:35:43.000Z,3.13
2022-11-09T23:38:08.000Z,2.87
2022-11-09T23:40:34.000Z,2.9
2022-11-09T23:43:00.000Z,2.33
2022-11-09T23:45:27.000Z,2.45
2022-11-09T23:47:52.000Z,2.58
2022-11-09T23:50:18.000Z,2.72
2022-11-09T23:52:44.000Z,2.95
2022-11-09T23:55:10.000Z,3.4
2022-11-09T23:57:35.000Z,3.47
